sensor_id;sensor_type;location;lat;lon;timestamp;pressure;altitude;pressure_sealevel;temperature;humidity
5952;BME280;3001;42.622;23.194;2023-05-23T00:01:09;91198.72;;;13.50;97.89
5952;BME280;3001;42.622;23.194;2023-05-23T00:03:40;91208.91;;;13.43;98.28
5952;BME280;3001;42.622;23.194;2023-05-23T00:06:07;91195.03;;;13.10;99.46
5952;BME280;3001;42.622;23.194;2023-05-23T00:08:34;91192.69;;;12.88;100.00
5952;BME280;3001;42.622;23.194;2023-05-23T00:11:01;91182.09;;;13.14;100.00
5952;BME280;3001;42.622;23.194;2023-05-23T00:13:27;91182.63;;;13.07;100.00
5952;BME280;3001;42.622;23.194;2023-05-23T00:15:54;91189.88;;;13.22;99.64
5952;BME280;3001;42.622;23.194;2023-05-23T00:18:21;91184.22;;;13.20;100.00
5952;BME280;3001;42.622;23.194;2023-05-23T00:20:50;91172.75;;;13.13;100.00
5952;BME280;3001;42.622;23.194;2023-05-23T00:23:17;91172.56;;;12.97;100.00
5952;BME280;3001;42.622;23.194;2023-05-23T00:25:45;91175.97;;;12.89;100.00
5952;BME280;3001;42.622;23.194;2023-05-23T00:28:17;91166.53;;;12.76;100.00
5952;BME280;3001;42.622;23.194;2023-05-23T00:30:44;91165.25;;;12.82;100.00
5952;BME280;3001;42.622;23.194;2023-05-23T00:33:12;91171.38;;;12.86;100.00
5952;BME280;3001;42.622;23.194;2023-05-23T00:35:40;91172.38;;;13.02;100.00
5952;BME280;3001;42.622;23.194;2023-05-23T00:38:08;91170.22;;;13.04;99.24
5952;BME280;3001;42.622;23.194;2023-05-23T00:40:36;91172.38;;;13.02;99.47
5952;BME280;3001;42.622;23.194;2023-05-23T00:43:02;91174.97;;;13.02;100.00
5952;BME280;3001;42.622;23.194;2023-05-23T00:45:29;91169.91;;;13.06;98.27
5952;BME280;3001;42.622;23.194;2023-05-23T00:47:56;91168.50;;;13.08;98.63
5952;BME280;3001;42.622;23.194;2023-05-23T00:50:23;91168.59;;;12.91;99.42
5952;BME280;3001;42.622;23.194;2023-05-23T00:52:54;91166.72;;;12.71;100.00
5952;BME280;3001;42.622;23.194;2023-05-23T00:55:23;91176.09;;;12.64;100.00
5952;BME280;3001;42.622;23.194;2023-05-23T00:57:50;91172.00;;;13.12;99.93
5952;BME280;3001;42.622;23.194;2023-05-23T01:00:19;91170.44;;;12.62;100.00
5952;BME280;3001;42.622;23.194;2023-05-23T01:02:47;91173.13;;;12.45;100.00
5952;BME280;3001;42.622;23.194;2023-05-23T01:05:16;91175.00;;;12.73;100.00
5952;BME280;3001;42.622;23.194;2023-05-23T01:07:42;91167.88;;;12.53;100.00
5952;BME280;3001;42.622;23.194;2023-05-23T01:10:10;91170.69;;;12.48;100.00
5952;BME280;3001;42.622;23.194;2023-05-23T01:12:45;91177.38;;;12.58;100.00
5952;BME280;3001;42.622;23.194;2023-05-23T01:15:19;91175.19;;;12.68;100.00
5952;BME280;3001;42.622;23.194;2023-05-23T01:17:53;91172.69;;;12.72;100.00
5952;BME280;3001;42.622;23.194;2023-05-23T01:20:22;91166.03;;;12.83;100.00
5952;BME280;3001;42.622;23.194;2023-05-23T01:23:00;91164.50;;;12.82;100.00
5952;BME280;3001;42.622;23.194;2023-05-23T01:25:43;91173.53;;;12.84;100.00
5952;BME280;3001;42.622;23.194;2023-05-23T01:28:15;91174.84;;;12.70;100.00
5952;BME280;3001;42.622;23.194;2023-05-23T01:30:44;91175.19;;;12.68;100.00
5952;BME280;3001;42.622;23.194;2023-05-23T01:33:13;91174.25;;;12.64;100.00
5952;BME280;3001;42.622;23.194;2023-05-23T01:35:42;91170.69;;;12.48;100.00
5952;BME280;3001;42.622;23.194;2023-05-23T01:38:09;91171.28;;;12.45;100.00
5952;BME280;3001;42.622;23.194;2023-05-23T01:40:35;91173.00;;;12.41;100.00
5952;BME280;3001;42.622;23.194;2023-05-23T01:43:02;91171.28;;;12.45;100.00
5952;BME280;3001;42.622;23.194;2023-05-23T01:45:31;91157.06;;;12.43;100.00
5952;BME280;3001;42.622;23.194;2023-05-23T01:47:58;91156.00;;;12.35;100.00
5952;BME280;3001;42.622;23.194;2023-05-23T01:50:25;91150.72;;;12.52;100.00
5952;BME280;3001;42.622;23.194;2023-05-23T01:52:52;91151.19;;;12.54;100.00
5952;BME280;3001;42.622;23.194;2023-05-23T01:55:21;91159.00;;;12.54;100.00
5952;BME280;3001;42.622;23.194;2023-05-23T01:57:49;91146.75;;;12.75;100.00
5952;BME280;3001;42.622;23.194;2023-05-23T02:00:17;91146.81;;;12.67;100.00
5952;BME280;3001;42.622;23.194;2023-05-23T02:02:45;91149.22;;;12.72;100.00
5952;BME280;3001;42.622;23.194;2023-05-23T02:05:12;91145.72;;;12.68;100.00
5952;BME280;3001;42.622;23.194;2023-05-23T02:07:39;91150.41;;;12.83;100.00
5952;BME280;3001;42.622;23.194;2023-05-23T02:10:07;91152.66;;;12.84;100.00
5952;BME280;3001;42.622;23.194;2023-05-23T02:12:34;91149.56;;;12.91;100.00
5952;BME280;3001;42.622;23.194;2023-05-23T02:15:01;91151.06;;;13.00;100.00
5952;BME280;3001;42.622;23.194;2023-05-23T02:17:28;91155.84;;;12.98;100.00
5952;BME280;3001;42.622;23.194;2023-05-23T02:19:56;91159.09;;;12.95;100.00
5952;BME280;3001;42.622;23.194;2023-05-23T02:22:23;91154.88;;;13.23;98.57
5952;BME280;3001;42.622;23.194;2023-05-23T02:24:50;91164.22;;;13.24;98.56
5952;BME280;3001;42.622;23.194;2023-05-23T02:27:16;91161.44;;;13.29;98.84
5952;BME280;3001;42.622;23.194;2023-05-23T02:29:43;91157.50;;;13.23;98.79
5952;BME280;3001;42.622;23.194;2023-05-23T02:32:10;91155.84;;;13.19;99.31
5952;BME280;3001;42.622;23.194;2023-05-23T02:34:37;91151.16;;;13.12;100.00
5952;BME280;3001;42.622;23.194;2023-05-23T02:37:06;91142.66;;;13.36;99.79
5952;BME280;3001;42.622;23.194;2023-05-23T02:39:34;91150.75;;;13.43;99.56
5952;BME280;3001;42.622;23.194;2023-05-23T02:42:00;91143.28;;;13.33;99.91
5952;BME280;3001;42.622;23.194;2023-05-23T02:44:27;91141.50;;;13.45;98.77
5952;BME280;3001;42.622;23.194;2023-05-23T02:46:54;91140.63;;;13.41;98.25
5952;BME280;3001;42.622;23.194;2023-05-23T02:49:20;91133.66;;;13.45;97.94
5952;BME280;3001;42.622;23.194;2023-05-23T02:51:47;91132.69;;;13.38;99.07
5952;BME280;3001;42.622;23.194;2023-05-23T02:54:15;91143.56;;;13.40;98.11
5952;BME280;3001;42.622;23.194;2023-05-23T02:56:43;91140.50;;;13.38;97.80
5952;BME280;3001;42.622;23.194;2023-05-23T02:59:09;91141.69;;;13.40;97.56
5952;BME280;3001;42.622;23.194;2023-05-23T03:01:36;91148.22;;;13.34;98.46
5952;BME280;3001;42.622;23.194;2023-05-23T03:04:03;91150.41;;;13.44;97.04
5952;BME280;3001;42.622;23.194;2023-05-23T03:06:30;91152.28;;;13.44;97.60
5952;BME280;3001;42.622;23.194;2023-05-23T03:08:58;91151.56;;;13.35;97.81
5952;BME280;3001;42.622;23.194;2023-05-23T03:11:26;91148.97;;;13.35;98.34
5952;BME280;3001;42.622;23.194;2023-05-23T03:13:54;91148.72;;;13.28;97.96
5952;BME280;3001;42.622;23.194;2023-05-23T03:16:21;91144.88;;;13.25;97.85
5952;BME280;3001;42.622;23.194;2023-05-23T03:18:48;91145.09;;;13.20;98.06
5952;BME280;3001;42.622;23.194;2023-05-23T03:21:15;91147.84;;;13.24;97.99
5952;BME280;3001;42.622;23.194;2023-05-23T03:23:42;91147.94;;;13.27;97.55
5952;BME280;3001;42.622;23.194;2023-05-23T03:26:08;91155.66;;;13.24;98.90
5952;BME280;3001;42.622;23.194;2023-05-23T03:28:37;91146.94;;;13.20;99.68
5952;BME280;3001;42.622;23.194;2023-05-23T03:31:04;91141.84;;;13.23;99.03
5952;BME280;3001;42.622;23.194;2023-05-23T03:33:30;91151.56;;;13.35;98.02
5952;BME280;3001;42.622;23.194;2023-05-23T03:35:57;91143.94;;;13.30;98.60
5952;BME280;3001;42.622;23.194;2023-05-23T03:38:24;91149.94;;;13.30;98.75
5952;BME280;3001;42.622;23.194;2023-05-23T03:40:50;91146.09;;;13.28;99.27
5952;BME280;3001;42.622;23.194;2023-05-23T03:43:17;91159.72;;;13.33;99.45
5952;BME280;3001;42.622;23.194;2023-05-23T03:45:45;91154.31;;;13.38;98.92
5952;BME280;3001;42.622;23.194;2023-05-23T03:48:12;91165.13;;;13.49;96.97
5952;BME280;3001;42.622;23.194;2023-05-23T03:50:39;91166.88;;;13.57;96.08
5952;BME280;3001;42.622;23.194;2023-05-23T03:53:06;91163.97;;;13.58;96.47
5952;BME280;3001;42.622;23.194;2023-05-23T03:55:32;91168.03;;;13.47;97.35
5952;BME280;3001;42.622;23.194;2023-05-23T03:57:59;91155.53;;;13.41;98.61
5952;BME280;3001;42.622;23.194;2023-05-23T04:00:26;91161.78;;;13.60;97.96
5952;BME280;3001;42.622;23.194;2023-05-23T04:02:54;91160.25;;;13.59;98.41
5952;BME280;3001;42.622;23.194;2023-05-23T04:05:21;91157.41;;;13.52;99.24
5952;BME280;3001;42.622;23.194;2023-05-23T04:07:48;91158.44;;;13.60;99.64
5952;BME280;3001;42.622;23.194;2023-05-23T04:10:15;91164.00;;;13.70;99.23
5952;BME280;3001;42.622;23.194;2023-05-23T04:12:42;91157.34;;;13.61;99.78
5952;BME280;3001;42.622;23.194;2023-05-23T04:15:09;91161.19;;;13.75;98.15
5952;BME280;3001;42.622;23.194;2023-05-23T04:17:36;91159.16;;;13.81;97.86
5952;BME280;3001;42.622;23.194;2023-05-23T04:20:07;91154.03;;;13.84;98.11
5952;BME280;3001;42.622;23.194;2023-05-23T04:22:34;91166.41;;;13.75;99.18
5952;BME280;3001;42.622;23.194;2023-05-23T04:25:00;91160.84;;;13.77;99.77
5952;BME280;3001;42.622;23.194;2023-05-23T04:27:27;91160.41;;;13.75;99.64
5952;BME280;3001;42.622;23.194;2023-05-23T04:29:55;91168.38;;;13.78;100.00
5952;BME280;3001;42.622;23.194;2023-05-23T04:32:22;91165.81;;;13.90;99.82
5952;BME280;3001;42.622;23.194;2023-05-23T04:34:49;91162.66;;;13.96;99.35
5952;BME280;3001;42.622;23.194;2023-05-23T04:37:17;91159.28;;;13.96;100.00
5952;BME280;3001;42.622;23.194;2023-05-23T04:39:46;91164.09;;;13.94;100.00
5952;BME280;3001;42.622;23.194;2023-05-23T04:42:13;91157.16;;;13.77;100.00
5952;BME280;3001;42.622;23.194;2023-05-23T04:44:40;91157.16;;;13.77;100.00
5952;BME280;3001;42.622;23.194;2023-05-23T04:47:07;91157.63;;;13.80;100.00
5952;BME280;3001;42.622;23.194;2023-05-23T04:49:35;91159.97;;;13.73;100.00
5952;BME280;3001;42.622;23.194;2023-05-23T04:52:01;91156.09;;;13.79;100.00
5952;BME280;3001;42.622;23.194;2023-05-23T04:54:29;91167.88;;;13.84;100.00
5952;BME280;3001;42.622;23.194;2023-05-23T04:56:57;91168.75;;;13.88;100.00
5952;BME280;3001;42.622;23.194;2023-05-23T04:59:24;91168.09;;;13.91;100.00
5952;BME280;3001;42.622;23.194;2023-05-23T05:01:51;91165.75;;;14.10;100.00
5952;BME280;3001;42.622;23.194;2023-05-23T05:04:17;91164.09;;;14.06;100.00
5952;BME280;3001;42.622;23.194;2023-05-23T05:06:44;91166.97;;;14.13;100.00
5952;BME280;3001;42.622;23.194;2023-05-23T05:09:12;91178.97;;;14.26;100.00
5952;BME280;3001;42.622;23.194;2023-05-23T05:11:40;91178.44;;;14.32;100.00
5952;BME280;3001;42.622;23.194;2023-05-23T05:14:07;91171.91;;;14.38;100.00
5952;BME280;3001;42.622;23.194;2023-05-23T05:16:33;91175.19;;;14.47;100.00
5952;BME280;3001;42.622;23.194;2023-05-23T05:19:00;91181.06;;;14.56;100.00
5952;BME280;3001;42.622;23.194;2023-05-23T05:21:27;91181.72;;;14.53;100.00
5952;BME280;3001;42.622;23.194;2023-05-23T05:23:53;91176.94;;;14.55;100.00
5952;BME280;3001;42.622;23.194;2023-05-23T05:26:20;91178.66;;;14.51;100.00
5952;BME280;3001;42.622;23.194;2023-05-23T05:28:49;91168.31;;;14.67;100.00
5952;BME280;3001;42.622;23.194;2023-05-23T05:31:16;91175.63;;;14.73;100.00
5952;BME280;3001;42.622;23.194;2023-05-23T05:33:43;91169.41;;;14.78;100.00
5952;BME280;3001;42.622;23.194;2023-05-23T05:36:10;91168.75;;;14.81;100.00
5952;BME280;3001;42.622;23.194;2023-05-23T05:38:37;91173.09;;;14.89;100.00
5952;BME280;3001;42.622;23.194;2023-05-23T05:41:04;91174.63;;;15.02;100.00
5952;BME280;3001;42.622;23.194;2023-05-23T05:43:30;91178.75;;;15.15;100.00
5952;BME280;3001;42.622;23.194;2023-05-23T05:45:58;91183.88;;;15.11;100.00
5952;BME280;3001;42.622;23.194;2023-05-23T05:48:25;91184.63;;;15.24;100.00
5952;BME280;3001;42.622;23.194;2023-05-23T05:50:52;91177.00;;;15.31;100.00
5952;BME280;3001;42.622;23.194;2023-05-23T05:53:18;91179.91;;;15.41;100.00
5952;BME280;3001;42.622;23.194;2023-05-23T05:55:45;91189.06;;;15.47;100.00
5952;BME280;3001;42.622;23.194;2023-05-23T05:58:12;91183.38;;;15.57;100.00
5952;BME280;3001;42.622;23.194;2023-05-23T06:00:38;91181.03;;;15.67;100.00
5952;BME280;3001;42.622;23.194;2023-05-23T06:03:09;91187.78;;;15.68;100.00
5952;BME280;3001;42.622;23.194;2023-05-23T06:05:36;91189.13;;;16.17;100.00
5952;BME280;3001;42.622;23.194;2023-05-23T06:08:04;91185.31;;;16.30;100.00
5952;BME280;3001;42.622;23.194;2023-05-23T06:10:31;91191.75;;;16.17;100.00
5952;BME280;3001;42.622;23.194;2023-05-23T06:12:58;91184.09;;;16.12;100.00
5952;BME280;3001;42.622;23.194;2023-05-23T06:15:25;91184.72;;;16.06;100.00
5952;BME280;3001;42.622;23.194;2023-05-23T06:17:51;91183.09;;;16.17;100.00
5952;BME280;3001;42.622;23.194;2023-05-23T06:20:19;91183.72;;;16.26;100.00
5952;BME280;3001;42.622;23.194;2023-05-23T06:22:46;91185.31;;;16.30;100.00
5952;BME280;3001;42.622;23.194;2023-05-23T06:25:13;91185.88;;;16.51;100.00
5952;BME280;3001;42.622;23.194;2023-05-23T06:27:39;91190.72;;;16.80;100.00
5952;BME280;3001;42.622;23.194;2023-05-23T06:30:07;91194.91;;;16.85;100.00
5952;BME280;3001;42.622;23.194;2023-05-23T06:32:34;91200.44;;;16.95;100.00
5952;BME280;3001;42.622;23.194;2023-05-23T06:35:00;91199.19;;;16.74;100.00
5952;BME280;3001;42.622;23.194;2023-05-23T06:37:28;91192.06;;;16.90;100.00
5952;BME280;3001;42.622;23.194;2023-05-23T06:39:55;91198.59;;;16.80;100.00
5952;BME280;3001;42.622;23.194;2023-05-23T06:42:22;91196.44;;;17.01;100.00
5952;BME280;3001;42.622;23.194;2023-05-23T06:44:48;91188.88;;;17.15;99.76
5952;BME280;3001;42.622;23.194;2023-05-23T06:47:15;91198.59;;;17.30;98.89
5952;BME280;3001;42.622;23.194;2023-05-23T06:49:42;91189.41;;;17.36;98.67
5952;BME280;3001;42.622;23.194;2023-05-23T06:52:09;91186.22;;;17.46;98.34
5952;BME280;3001;42.622;23.194;2023-05-23T06:54:37;91188.25;;;17.52;98.76
5952;BME280;3001;42.622;23.194;2023-05-23T06:57:04;91187.75;;;17.66;97.59
5952;BME280;3001;42.622;23.194;2023-05-23T06:59:31;91188.78;;;17.61;97.96
5952;BME280;3001;42.622;23.194;2023-05-23T07:01:58;91185.84;;;17.82;97.53
5952;BME280;3001;42.622;23.194;2023-05-23T07:04:24;91180.69;;;18.08;96.41
5952;BME280;3001;42.622;23.194;2023-05-23T07:06:52;91179.97;;;18.07;95.59
5952;BME280;3001;42.622;23.194;2023-05-23T07:09:19;91183.53;;;18.18;95.62
5952;BME280;3001;42.622;23.194;2023-05-23T07:11:47;91189.50;;;18.34;95.53
5952;BME280;3001;42.622;23.194;2023-05-23T07:14:14;91192.19;;;18.60;93.36
5952;BME280;3001;42.622;23.194;2023-05-23T07:16:40;91181.94;;;18.78;93.31
5952;BME280;3001;42.622;23.194;2023-05-23T07:19:07;91180.66;;;18.91;92.69
5952;BME280;3001;42.622;23.194;2023-05-23T07:21:34;91176.03;;;18.84;92.52
5952;BME280;3001;42.622;23.194;2023-05-23T07:24:01;91172.94;;;18.79;92.56
5952;BME280;3001;42.622;23.194;2023-05-23T07:26:28;91166.75;;;18.90;92.63
5952;BME280;3001;42.622;23.194;2023-05-23T07:28:57;91169.66;;;18.85;93.20
5952;BME280;3001;42.622;23.194;2023-05-23T07:31:23;91170.19;;;18.94;92.36
5952;BME280;3001;42.622;23.194;2023-05-23T07:33:50;91165.59;;;18.88;91.91
5952;BME280;3001;42.622;23.194;2023-05-23T07:36:17;91169.31;;;18.87;92.21
5952;BME280;3001;42.622;23.194;2023-05-23T07:38:43;91169.66;;;19.08;92.15
5952;BME280;3001;42.622;23.194;2023-05-23T07:41:11;91160.44;;;19.46;90.75
5952;BME280;3001;42.622;23.194;2023-05-23T07:43:37;91163.81;;;19.43;90.06
5952;BME280;3001;42.622;23.194;2023-05-23T07:46:05;91164.00;;;19.31;90.81
5952;BME280;3001;42.622;23.194;2023-05-23T07:48:32;91180.16;;;19.56;90.73
5952;BME280;3001;42.622;23.194;2023-05-23T07:50:59;91168.03;;;19.51;90.05
5952;BME280;3001;42.622;23.194;2023-05-23T07:53:26;91175.75;;;19.67;89.38
5952;BME280;3001;42.622;23.194;2023-05-23T07:55:52;91170.59;;;20.03;88.50
5952;BME280;3001;42.622;23.194;2023-05-23T07:58:19;91174.63;;;19.94;89.32
5952;BME280;3001;42.622;23.194;2023-05-23T08:00:47;91171.00;;;20.05;89.30
5952;BME280;3001;42.622;23.194;2023-05-23T08:03:15;91170.13;;;20.31;88.13
5952;BME280;3001;42.622;23.194;2023-05-23T08:05:43;91169.16;;;20.42;87.36
5952;BME280;3001;42.622;23.194;2023-05-23T08:08:09;91174.50;;;20.49;87.15
5952;BME280;3001;42.622;23.194;2023-05-23T08:10:36;91181.03;;;20.66;86.01
5952;BME280;3001;42.622;23.194;2023-05-23T08:13:04;91172.88;;;20.78;85.33
5952;BME280;3001;42.622;23.194;2023-05-23T08:15:31;91182.13;;;21.01;84.22
5952;BME280;3001;42.622;23.194;2023-05-23T08:17:58;91179.91;;;21.07;84.82
5952;BME280;3001;42.622;23.194;2023-05-23T08:20:26;91184.53;;;21.20;83.39
5952;BME280;3001;42.622;23.194;2023-05-23T08:22:57;91180.81;;;21.24;83.35
5952;BME280;3001;42.622;23.194;2023-05-23T08:25:24;91183.88;;;21.30;84.05
5952;BME280;3001;42.622;23.194;2023-05-23T08:27:54;91180.53;;;21.40;82.64
5952;BME280;3001;42.622;23.194;2023-05-23T08:30:21;91179.81;;;21.46;82.96
5952;BME280;3001;42.622;23.194;2023-05-23T08:32:50;91184.06;;;21.61;81.69
5952;BME280;3001;42.622;23.194;2023-05-23T08:35:16;91178.72;;;21.54;83.08
5952;BME280;3001;42.622;23.194;2023-05-23T08:37:44;91184.38;;;21.46;82.85
5952;BME280;3001;42.622;23.194;2023-05-23T08:40:13;91182.91;;;21.59;82.02
5952;BME280;3001;42.622;23.194;2023-05-23T08:42:40;91176.25;;;21.75;81.86
5952;BME280;3001;42.622;23.194;2023-05-23T08:45:08;91179.34;;;21.88;82.06
5952;BME280;3001;42.622;23.194;2023-05-23T08:47:36;91173.66;;;21.89;81.48
5952;BME280;3001;42.622;23.194;2023-05-23T08:50:05;91184.31;;;22.03;79.21
5952;BME280;3001;42.622;23.194;2023-05-23T08:52:32;91176.41;;;22.14;81.09
5952;BME280;3001;42.622;23.194;2023-05-23T08:55:02;91170.03;;;22.25;81.57
5952;BME280;3001;42.622;23.194;2023-05-23T08:57:30;91173.84;;;22.28;79.86
5952;BME280;3001;42.622;23.194;2023-05-23T08:59:57;91168.91;;;22.33;79.30
5952;BME280;3001;42.622;23.194;2023-05-23T09:02:25;91167.50;;;22.50;77.79
5952;BME280;3001;42.622;23.194;2023-05-23T09:04:51;91173.91;;;22.52;78.15
5952;BME280;3001;42.622;23.194;2023-05-23T09:07:18;91172.41;;;22.62;78.19
5952;BME280;3001;42.622;23.194;2023-05-23T09:09:45;91175.84;;;22.87;77.44
5952;BME280;3001;42.622;23.194;2023-05-23T09:12:13;91173.59;;;23.02;76.57
5952;BME280;3001;42.622;23.194;2023-05-23T09:14:41;91178.94;;;23.20;75.40
5952;BME280;3001;42.622;23.194;2023-05-23T09:17:10;91183.47;;;23.37;73.96
5952;BME280;3001;42.622;23.194;2023-05-23T09:19:42;91173.63;;;23.51;74.83
5952;BME280;3001;42.622;23.194;2023-05-23T09:22:09;91176.63;;;23.60;73.67
5952;BME280;3001;42.622;23.194;2023-05-23T09:24:37;91177.38;;;23.64;70.89
5952;BME280;3001;42.622;23.194;2023-05-23T09:27:06;91175.09;;;23.73;66.72
5952;BME280;3001;42.622;23.194;2023-05-23T09:29:37;91170.91;;;23.79;67.53
5952;BME280;3001;42.622;23.194;2023-05-23T09:32:11;91169.44;;;23.71;66.21
5952;BME280;3001;42.622;23.194;2023-05-23T09:34:39;91181.53;;;23.93;65.16
5952;BME280;3001;42.622;23.194;2023-05-23T09:37:06;91187.13;;;24.13;62.87
5952;BME280;3001;42.622;23.194;2023-05-23T09:39:36;91176.94;;;24.08;63.60
5952;BME280;3001;42.622;23.194;2023-05-23T09:42:03;91185.66;;;24.01;55.35
5952;BME280;3001;42.622;23.194;2023-05-23T09:44:30;91164.75;;;24.21;64.36
5952;BME280;3001;42.622;23.194;2023-05-23T09:46:58;91164.75;;;24.21;62.68
5952;BME280;3001;42.622;23.194;2023-05-23T09:49:31;91170.81;;;24.21;63.72
5952;BME280;3001;42.622;23.194;2023-05-23T09:51:59;91170.44;;;24.16;60.49
5952;BME280;3001;42.622;23.194;2023-05-23T09:54:26;91173.78;;;24.30;57.80
5952;BME280;3001;42.622;23.194;2023-05-23T09:56:53;91170.13;;;23.96;58.67
5952;BME280;3001;42.622;23.194;2023-05-23T09:59:21;91166.22;;;24.32;59.80
5952;BME280;3001;42.622;23.194;2023-05-23T10:01:50;91172.22;;;24.40;55.13
5952;BME280;3001;42.622;23.194;2023-05-23T10:04:20;91161.22;;;24.52;55.04
5952;BME280;3001;42.622;23.194;2023-05-23T10:06:49;91154.97;;;24.79;59.18
5952;BME280;3001;42.622;23.194;2023-05-23T10:09:20;91169.34;;;24.85;52.63
5952;BME280;3001;42.622;23.194;2023-05-23T10:14:59;91154.50;;;24.91;56.69
5952;BME280;3001;42.622;23.194;2023-05-23T10:17:32;91169.28;;;24.99;50.36
5952;BME280;3001;42.622;23.194;2023-05-23T10:20:08;91163.06;;;25.16;53.34
5952;BME280;3001;42.622;23.194;2023-05-23T10:22:37;91166.41;;;25.27;53.08
5952;BME280;3001;42.622;23.194;2023-05-23T10:25:04;91164.09;;;25.32;50.30
5952;BME280;3001;42.622;23.194;2023-05-23T10:27:33;91167.56;;;25.26;51.36
5952;BME280;3001;42.622;23.194;2023-05-23T10:29:59;91160.06;;;25.14;52.88
5952;BME280;3001;42.622;23.194;2023-05-23T10:32:27;91162.66;;;25.24;49.91
5952;BME280;3001;42.622;23.194;2023-05-23T10:34:58;91160.63;;;25.39;48.65
5952;BME280;3001;42.622;23.194;2023-05-23T10:37:34;91162.22;;;25.33;49.57
5952;BME280;3001;42.622;23.194;2023-05-23T10:40:06;91160.00;;;25.21;49.94
5952;BME280;3001;42.622;23.194;2023-05-23T10:42:43;91154.28;;;25.26;52.69
5952;BME280;3001;42.622;23.194;2023-05-23T10:45:15;91160.19;;;25.44;47.77
5952;BME280;3001;42.622;23.194;2023-05-23T10:47:42;91164.03;;;25.39;49.72
5952;BME280;3001;42.622;23.194;2023-05-23T10:50:11;91153.34;;;25.46;49.11
5952;BME280;3001;42.622;23.194;2023-05-23T10:52:40;91149.38;;;25.61;51.52
5952;BME280;3001;42.622;23.194;2023-05-23T10:55:12;91163.53;;;25.55;49.29
5952;BME280;3001;42.622;23.194;2023-05-23T10:57:38;91148.31;;;25.55;49.90
5952;BME280;3001;42.622;23.194;2023-05-23T11:00:12;91171.44;;;25.62;50.72
5952;BME280;3001;42.622;23.194;2023-05-23T11:02:46;91153.44;;;25.76;45.27
5952;BME280;3001;42.622;23.194;2023-05-23T11:05:20;91144.19;;;25.91;53.41
5952;BME280;3001;42.622;23.194;2023-05-23T11:08:07;91136.34;;;26.11;53.89
5952;BME280;3001;42.622;23.194;2023-05-23T11:10:55;91155.44;;;26.06;49.35
5952;BME280;3001;42.622;23.194;2023-05-23T11:13:24;91135.59;;;26.10;51.64
5952;BME280;3001;42.622;23.194;2023-05-23T11:15:51;91150.09;;;26.39;52.04
5952;BME280;3001;42.622;23.194;2023-05-23T11:18:20;91147.53;;;26.29;50.23
5952;BME280;3001;42.622;23.194;2023-05-23T11:20:49;91139.81;;;26.08;48.49
5952;BME280;3001;42.622;23.194;2023-05-23T11:23:19;91136.56;;;26.23;52.19
5952;BME280;3001;42.622;23.194;2023-05-23T11:25:48;91140.34;;;26.26;55.01
5952;BME280;3001;42.622;23.194;2023-05-23T11:28:15;91151.34;;;26.31;49.64
5952;BME280;3001;42.622;23.194;2023-05-23T11:30:42;91146.84;;;26.25;48.30
5952;BME280;3001;42.622;23.194;2023-05-23T11:33:11;91146.69;;;26.39;50.81
5952;BME280;3001;42.622;23.194;2023-05-23T11:35:39;91142.59;;;26.61;48.04
5952;BME280;3001;42.622;23.194;2023-05-23T11:38:08;91133.66;;;26.44;45.88
5952;BME280;3001;42.622;23.194;2023-05-23T11:40:37;91142.28;;;26.25;45.59
5952;BME280;3001;42.622;23.194;2023-05-23T11:43:06;91135.41;;;26.24;47.68
5952;BME280;3001;42.622;23.194;2023-05-23T11:45:33;91136.81;;;26.36;48.44
5952;BME280;3001;42.622;23.194;2023-05-23T11:48:07;91124.88;;;26.14;44.47
5952;BME280;3001;42.622;23.194;2023-05-23T11:50:42;91121.88;;;26.12;49.96
5952;BME280;3001;42.622;23.194;2023-05-23T11:53:10;91125.53;;;26.25;52.09
5952;BME280;3001;42.622;23.194;2023-05-23T11:55:40;91126.38;;;26.18;49.55
5952;BME280;3001;42.622;23.194;2023-05-23T11:58:13;91126.78;;;26.17;49.20
5952;BME280;3001;42.622;23.194;2023-05-23T12:00:42;91126.13;;;26.06;51.16
5952;BME280;3001;42.622;23.194;2023-05-23T12:03:09;91109.25;;;25.86;50.08
5952;BME280;3001;42.622;23.194;2023-05-23T12:05:36;91115.97;;;25.97;51.23
5952;BME280;3001;42.622;23.194;2023-05-23T12:08:03;91114.25;;;26.14;50.57
5952;BME280;3001;42.622;23.194;2023-05-23T12:10:30;91105.38;;;26.24;54.08
5952;BME280;3001;42.622;23.194;2023-05-23T12:12:58;91105.56;;;26.40;52.17
5952;BME280;3001;42.622;23.194;2023-05-23T12:15:25;91092.44;;;26.56;49.06
5952;BME280;3001;42.622;23.194;2023-05-23T12:17:53;91084.06;;;26.54;48.87
5952;BME280;3001;42.622;23.194;2023-05-23T12:20:20;91098.31;;;26.70;48.03
5952;BME280;3001;42.622;23.194;2023-05-23T12:22:47;91108.00;;;26.57;46.84
5952;BME280;3001;42.622;23.194;2023-05-23T12:25:14;91102.84;;;26.73;46.24
5952;BME280;3001;42.622;23.194;2023-05-23T12:27:40;91088.81;;;26.69;47.12
5952;BME280;3001;42.622;23.194;2023-05-23T12:30:12;91099.38;;;26.76;45.22
5952;BME280;3001;42.622;23.194;2023-05-23T12:32:41;91100.56;;;26.71;45.79
5952;BME280;3001;42.622;23.194;2023-05-23T12:35:09;91099.25;;;26.83;46.50
5952;BME280;3001;42.622;23.194;2023-05-23T12:37:38;91095.69;;;27.19;47.07
5952;BME280;3001;42.622;23.194;2023-05-23T12:40:09;91088.31;;;27.27;49.28
5952;BME280;3001;42.622;23.194;2023-05-23T12:42:48;91097.91;;;27.21;43.00
5952;BME280;3001;42.622;23.194;2023-05-23T12:45:16;91093.81;;;27.16;45.99
5952;BME280;3001;42.622;23.194;2023-05-23T12:47:43;91099.16;;;27.16;44.70
5952;BME280;3001;42.622;23.194;2023-05-23T12:50:10;91086.84;;;27.22;41.99
5952;BME280;3001;42.622;23.194;2023-05-23T12:52:37;91076.41;;;27.31;46.92
5952;BME280;3001;42.622;23.194;2023-05-23T12:55:05;91081.00;;;27.31;49.50
5952;BME280;3001;42.622;23.194;2023-05-23T12:57:33;91065.69;;;27.54;46.38
5952;BME280;3001;42.622;23.194;2023-05-23T13:00:00;91079.53;;;27.49;44.61
5952;BME280;3001;42.622;23.194;2023-05-23T13:02:28;91079.66;;;27.42;44.78
5952;BME280;3001;42.622;23.194;2023-05-23T13:04:55;91065.63;;;27.38;44.95
5952;BME280;3001;42.622;23.194;2023-05-23T13:07:22;91064.78;;;27.64;44.78
5952;BME280;3001;42.622;23.194;2023-05-23T13:09:49;91081.59;;;27.61;45.66
5952;BME280;3001;42.622;23.194;2023-05-23T13:12:15;91068.84;;;27.49;44.24
5952;BME280;3001;42.622;23.194;2023-05-23T13:14:42;91071.47;;;27.53;44.35